Ana Sayfa
METAR-TAF:

METAR-TAF

Havaalanları :

Şakirpaşa Havalimanı

Adana, Türkiye

Enlem: 36-59N, Boylam: 035-18E, yükseklik: 20 m

Güncel hava durumu gözlemi

Rapor saat 15:50 UTC de 42 dakika önce yapıldı.
Rüzgar güneybatıdan 9 kt
Sıcaklık 30°C
Nem 46%
Basınç 1010 hPa
Görüş mesafesi 10 km veya daha fazla
1500 m altında bulut yok ve kümülonimbus yok

METAR: LTAF 231550Z 22009KT CAVOK 30/17 Q1010 NOSIG RMK RWY23 24010KT

Saat: 19:32 (16:32 UTC)


TAF: eksik

4.000'den fazla havaalanı için hava durumu gözlemleri ve tahminleri (METAR ve TAF raporları).

Kullanılabilir istasyonlar harita üzerinde sarı ve kırmızı noktalarla gösterilir.

İstasyonun adını görmek için fareyi noktanın üzerinde gezdirin.

Sonrasında hava gözlem ve tahminlerini görmek için tıklayın.

Haritayı değiştirmek için: yaklaştırmak için siyah artı işaretli yeşil düğmeye ve uzaklaştırmak için de eksi işaretli düğmeye hızla tıklayın; bitişik haritalar için yeşil okları kullanın.


METAR-TAF: